Limbert, Mississippi
Current Conditions -  °F | °C
As of 7:35 AM on Sunday 23 Nov 2014 (Local Time) from KPIB Reporting Station
Overcast Overcast  
Wind Chill: 61°   Ceiling: 200
Heat Index: 61°   Visibility: 1.2mi
Dew Point: 57°   Wind: 0mph
Humidity: 88%   Direction: NA
Pressure: 29.75"   Gusts: NA
Location:  31.6875°N, 89.1116°W
Report Text: KPIB 231335Z AUTO 00000KT 1 1/4SM OVC002 16/14 A2975 RMK AO1 LTG DSNT S P0004
Loading
Personal Weather Stations






























Interactive Weather Map New forecast layout! Learn more

10-Day Weather Forecast

Advertisements
Track Severe Weather on mobile